Time;durP1;ratioP1;P1;durP2;ratioP2;P2;SDS_P1;SDS_P2;PMS_P1;PMS_P2;Temp;Humidity;BMP_temperature;BMP_pressure;BME280_temperature;BME280_humidity;BME280_pressure;Samples;Min_cycle;Max_cycle;Signal;HPM_P1;HPM_P2
2022/01/21 00:00:29;;;;;;;10.95;7.75;;;;;;;20.23;23.98;97677.16;5170757;27;20029;-61
2022/01/21 00:02:55;;;;;;;11.85;9.25;;;;;;;20.22;23.96;97675.56;5170665;27;20152;-62
2022/01/21 00:05:23;;;;;;;10.63;8.45;;;;;;;20.22;23.79;97679.06;5170727;27;20042;-61
2022/01/21 00:07:50;;;;;;;10.68;8.10;;;;;;;20.21;24.00;97672.03;5155441;27;20038;-61
2022/01/21 00:10:15;;;;;;;11.95;8.35;;;;;;;20.21;23.96;97672.03;5149358;27;20086;-60
2022/01/21 00:12:41;;;;;;;11.20;8.73;;;;;;;20.21;23.97;97673.91;5149636;27;20027;-61
2022/01/21 00:15:10;;;;;;;11.35;8.85;;;;;;;20.22;23.82;97672.88;5149722;27;20033;-62
2022/01/21 00:17:36;;;;;;;11.48;8.80;;;;;;;20.22;23.97;97683.63;5149605;27;20025;-57
2022/01/21 00:31:01;;;;;;;10.48;7.97;;;;;;;20.15;23.86;97682.88;5149420;27;20021;-58
2022/01/21 00:33:26;;;;;;;10.63;8.45;;;;;;;20.13;24.05;97667.81;5149206;27;20093;-61
2022/01/21 00:35:52;;;;;;;11.95;9.18;;;;;;;20.13;24.07;97680.44;5149332;27;20029;-61
2022/01/21 00:38:17;;;;;;;11.23;9.02;;;;;;;20.13;24.30;97672.38;5149184;27;20015;-61
2022/01/21 00:40:43;;;;;;;11.25;9.30;;;;;;;20.11;24.13;97671.78;5149275;27;20220;-62
2022/01/21 00:43:15;;;;;;;11.88;9.00;;;;;;;20.12;24.07;97684.16;5148972;27;20050;-61
2022/01/21 00:45:40;;;;;;;10.68;8.93;;;;;;;20.09;24.14;97674.69;5149141;27;20033;-61
2022/01/21 00:48:06;;;;;;;13.25;9.45;;;;;;;20.12;24.03;97673.41;5149083;27;20023;-61
2022/01/21 00:50:32;;;;;;;10.88;8.57;;;;;;;20.12;23.98;97663.50;5148979;27;20015;-60
2022/01/21 00:52:58;;;;;;;9.75;8.15;;;;;;;20.11;24.07;97674.47;5148852;27;20269;-61
2022/01/21 00:55:23;;;;;;;10.85;8.52;;;;;;;20.10;23.72;97676.31;5149210;27;20019;-62
2022/01/21 00:57:49;;;;;;;10.77;9.25;;;;;;;20.13;23.84;97675.06;5151081;27;20250;-58
2022/01/21 01:00:15;;;;;;;10.80;9.18;;;;;;;20.11;23.58;97677.97;5169957;27;20015;-60
2022/01/21 01:02:41;;;;;;;11.77;8.88;;;;;;;20.08;23.89;97673.03;5169324;27;20034;-61
2022/01/21 01:05:08;;;;;;;10.48;8.40;;;;;;;20.07;23.77;97684.81;5165919;27;20325;-60
2022/01/21 01:07:34;;;;;;;10.85;9.07;;;;;;;20.05;24.03;97681.56;5169009;27;20018;-59
2022/01/21 01:10:02;;;;;;;11.43;9.13;;;;;;;20.07;23.82;97684.81;5169614;27;20042;-61
2022/01/21 01:20:23;;;;;;;10.55;8.00;;;;;;;20.03;23.88;97680.13;5169407;27;20059;-60
2022/01/21 01:22:57;;;;;;;12.18;9.00;;;;;;;20.04;23.70;97679.09;5169345;27;20042;-61
2022/01/21 01:28:07;;;;;;;11.57;8.77;;;;;;;20.01;24.00;97677.69;5169329;27;20030;-60
2022/01/21 01:30:35;;;;;;;9.98;7.80;;;;;;;20.01;23.75;97675.00;5169347;27;20022;-60
2022/01/21 01:33:02;;;;;;;11.77;8.55;;;;;;;20.00;23.83;97678.75;5169247;27;20046;-61
2022/01/21 01:35:32;;;;;;;9.52;8.30;;;;;;;20.00;23.71;97669.88;5169332;27;20079;-61
2022/01/21 01:40:53;;;;;;;12.82;9.10;;;;;;;19.99;23.88;97679.78;5169656;27;20023;-60
2022/01/21 01:51:25;;;;;;;12.85;9.15;;;;;;;20.01;23.68;97675.00;5166273;27;20034;-62
2022/01/21 01:54:08;;;;;;;10.43;7.65;;;;;;;20.01;23.69;97668.81;5148341;28;20023;-61
2022/01/21 01:56:38;;;;;;;9.85;8.25;;;;;;;20.04;23.79;97660.31;5148419;28;20041;-62
2022/01/21 01:59:04;;;;;;;9.40;7.90;;;;;;;20.05;23.83;97665.47;5148262;28;20096;-62
2022/01/21 02:01:30;;;;;;;10.57;8.52;;;;;;;20.08;23.66;97670.34;5148315;28;20090;-62
2022/01/21 02:03:55;;;;;;;9.88;7.75;;;;;;;20.11;23.63;97669.09;5148265;28;20043;-61
2022/01/21 02:06:22;;;;;;;11.07;8.45;;;;;;;20.14;23.73;97665.97;5148353;28;20212;-62
2022/01/21 02:08:47;;;;;;;11.38;8.85;;;;;;;20.15;23.68;97662.19;5148275;28;20037;-62
2022/01/21 02:11:13;;;;;;;10.30;8.10;;;;;;;20.17;23.41;97667.38;5148112;28;20035;-62
2022/01/21 02:13:43;;;;;;;9.50;7.88;;;;;;;20.19;23.47;97670.63;5148571;27;20041;-62
2022/01/21 02:21:32;;;;;;;10.15;7.72;;;;;;;20.17;23.52;97659.31;5172806;27;20120;-60
2022/01/21 02:24:28;;;;;;;9.23;8.07;;;;;;;20.17;23.35;97662.00;5172729;27;20049;-62
2022/01/21 02:26:54;;;;;;;13.68;9.57;;;;;;;20.15;23.59;97656.84;5172538;27;20025;-59
2022/01/21 02:29:28;;;;;;;10.80;8.15;;;;;;;20.15;23.55;97661.41;5172630;27;20042;-61
2022/01/21 02:31:57;;;;;;;11.00;7.90;;;;;;;20.13;23.41;97661.63;5172433;27;20023;-60
2022/01/21 02:34:23;;;;;;;10.98;8.27;;;;;;;20.11;23.56;97659.16;5172787;27;20169;-62
2022/01/21 02:36:49;;;;;;;11.13;8.55;;;;;;;20.11;23.48;97651.09;5172503;27;20037;-59
2022/01/21 02:39:14;;;;;;;9.43;7.93;;;;;;;20.12;23.38;97658.13;5172356;27;20030;-62
2022/01/21 02:41:40;;;;;;;9.63;7.75;;;;;;;20.13;23.47;97662.44;5172400;27;20018;-61
2022/01/21 02:44:07;;;;;;;7.28;5.95;;;;;;;20.09;24.87;97658.56;5172152;27;20166;-62
2022/01/21 02:46:36;;;;;;;7.85;6.43;;;;;;;19.80;25.59;97655.63;5172572;27;20015;-61
2022/01/21 02:49:02;;;;;;;9.55;6.28;;;;;;;19.36;26.35;97645.06;5172226;27;20018;-59
2022/01/21 02:51:28;;;;;;;8.65;6.70;;;;;;;18.92;26.88;97645.06;5172146;27;20015;-62
2022/01/21 02:56:19;;;;;;;8.25;6.97;;;;;;;18.40;27.41;97631.94;5172395;27;20187;-63
2022/01/21 02:58:46;;;;;;;11.80;7.55;;;;;;;18.29;27.58;97644.19;5172234;27;20098;-66
2022/01/21 03:01:12;;;;;;;8.40;6.90;;;;;;;18.07;27.79;97649.09;5171991;27;20010;-63
2022/01/21 03:03:40;;;;;;;8.55;6.88;;;;;;;17.84;28.12;97652.28;5171853;27;20216;-63
2022/01/21 03:06:05;;;;;;;8.70;7.20;;;;;;;17.72;28.18;97638.75;5170253;27;20017;-64
2022/01/21 03:08:31;;;;;;;9.50;7.22;;;;;;;17.65;28.24;97641.44;5150880;27;20011;-63
2022/01/21 03:10:57;;;;;;;10.35;7.20;;;;;;;17.54;28.14;97647.47;5150719;27;20103;-63
2022/01/21 03:13:23;;;;;;;9.63;7.20;;;;;;;17.43;28.19;97643.63;5150774;27;20023;-65
2022/01/21 03:15:50;;;;;;;11.90;8.20;;;;;;;17.32;28.46;97630.91;5150695;27;20022;-63
2022/01/21 03:18:16;;;;;;;9.80;8.02;;;;;;;17.22;28.53;97629.47;5150728;27;20086;-65
2022/01/21 03:20:44;;;;;;;10.07;7.10;;;;;;;17.19;28.75;97627.25;5150691;27;20111;-62
2022/01/21 03:23:15;;;;;;;9.68;7.22;;;;;;;17.12;28.81;97631.78;5150617;27;20015;-62
2022/01/21 03:25:42;;;;;;;9.68;7.30;;;;;;;17.07;28.69;97620.91;5150429;27;20041;-66
2022/01/21 03:28:08;;;;;;;11.80;8.20;;;;;;;17.05;28.67;97631.00;5150597;27;20037;-64
2022/01/21 03:30:34;;;;;;;10.75;8.15;;;;;;;16.96;28.67;97622.38;5150350;27;20019;-65
2022/01/21 03:33:00;;;;;;;10.30;7.93;;;;;;;16.92;28.90;97621.13;5150416;27;20035;-64
2022/01/21 03:35:25;;;;;;;10.13;7.97;;;;;;;16.86;28.80;97606.75;5150519;27;20117;-64
2022/01/21 03:37:51;;;;;;;10.63;7.78;;;;;;;16.86;28.98;97622.78;5150367;27;20030;-64
2022/01/21 03:40:16;;;;;;;11.10;9.35;;;;;;;16.81;28.84;97619.09;5132462;27;20007;-65
2022/01/21 03:42:42;;;;;;;10.27;7.53;;;;;;;16.73;28.84;97623.63;5150175;27;20124;-66
2022/01/21 03:45:08;;;;;;;10.30;7.78;;;;;;;16.63;29.34;97621.38;5159902;27;20023;-67
2022/01/21 03:47:34;;;;;;;11.10;9.00;;;;;;;16.62;28.89;97630.41;5170978;27;20021;-65
2022/01/21 03:50:18;;;;;;;10.40;7.65;;;;;;;16.61;28.85;97622.59;5170991;27;20015;-65
2022/01/21 03:52:44;;;;;;;11.88;8.07;;;;;;;16.53;28.90;97622.84;5166026;27;20232;-66
2022/01/21 03:55:10;;;;;;;10.95;7.90;;;;;;;16.47;28.97;97619.94;5170946;27;20139;-65
2022/01/21 03:57:35;;;;;;;14.00;10.13;;;;;;;16.51;29.18;97608.88;5170827;27;20239;-65
2022/01/21 04:00:02;;;;;;;12.55;8.88;;;;;;;16.76;28.89;97617.88;5170800;27;20018;-66
2022/01/21 04:02:27;;;;;;;10.23;7.32;;;;;;;17.05;28.38;97628.31;5171640;27;20006;-64
2022/01/21 04:04:53;;;;;;;9.88;8.05;;;;;;;17.30;28.29;97643.66;5191906;27;20108;-67
2022/01/21 04:07:18;;;;;;;11.68;8.50;;;;;;;17.50;28.14;97649.72;5188141;27;20096;-65
2022/01/21 04:09:44;;;;;;;13.70;10.20;;;;;;;17.64;27.77;97647.03;5164675;27;20026;-65
2022/01/21 04:12:09;;;;;;;11.40;9.02;;;;;;;17.76;27.66;97648.00;5166599;27;20163;-64
2022/01/21 04:14:35;;;;;;;15.93;9.13;;;;;;;17.85;27.54;97640.53;5169012;27;20014;-65
2022/01/21 04:17:00;;;;;;;12.23;8.98;;;;;;;17.92;27.50;97641.31;5168796;27;20015;-64
2022/01/21 04:19:27;;;;;;;12.00;9.20;;;;;;;18.04;27.52;97638.81;5169040;27;20235;-65
2022/01/21 04:21:52;;;;;;;13.30;9.73;;;;;;;18.10;27.16;97631.75;5168689;27;20079;-65
2022/01/21 04:24:18;;;;;;;13.43;9.52;;;;;;;18.17;26.98;97634.38;5168783;27;20027;-65
2022/01/21 04:26:44;;;;;;;12.30;8.07;;;;;;;18.20;27.20;97650.81;5168865;27;20019;-65
2022/01/21 04:29:09;;;;;;;13.43;9.80;;;;;;;18.25;27.16;97642.97;5149495;27;20022;-65
2022/01/21 04:31:35;;;;;;;11.68;8.82;;;;;;;18.30;27.12;97640.47;5150527;27;20021;-65
2022/01/21 04:34:00;;;;;;;13.48;9.05;;;;;;;18.34;27.02;97648.88;5168597;27;20021;-65
2022/01/21 04:36:26;;;;;;;13.13;10.38;;;;;;;18.36;26.99;97652.19;5168450;27;20219;-65
2022/01/21 04:38:54;;;;;;;12.98;9.85;;;;;;;18.39;26.74;97646.34;5168586;27;20011;-65
2022/01/21 04:49:26;;;;;;;15.32;10.88;;;;;;;18.50;26.61;97636.81;5169886;27;20013;-66
2022/01/21 04:52:24;;;;;;;12.43;9.60;;;;;;;18.53;26.93;97641.72;5169484;27;20007;-65
2022/01/21 04:54:43;;;;;;;11.90;9.63;;;;;;;18.57;27.01;97637.59;5167821;27;20014;-66
2022/01/21 04:57:09;;;;;;;12.07;9.73;;;;;;;18.58;27.16;97636.53;5169766;27;20043;-66
2022/01/21 04:59:36;;;;;;;12.80;9.15;;;;;;;18.61;27.32;97646.00;5169731;27;20018;-66
2022/01/21 05:02:02;;;;;;;11.32;8.25;;;;;;;18.62;27.33;97644.94;5169524;27;20018;-65
2022/01/21 05:04:28;;;;;;;12.88;9.00;;;;;;;18.61;27.33;97638.75;5169028;27;20015;-65
2022/01/21 05:06:54;;;;;;;12.30;9.82;;;;;;;18.64;27.01;97626.81;5169564;27;20010;-64
2022/01/21 05:09:28;;;;;;;9.90;8.88;;;;;;;18.64;27.06;97628.66;5170090;27;20019;-65
2022/01/21 05:11:55;;;;;;;15.68;12.45;;;;;;;18.66;26.68;97637.28;5169342;27;20094;-64
2022/01/21 05:14:25;;;;;;;15.25;11.82;;;;;;;18.65;26.61;97632.97;5169585;27;20049;-64
2022/01/21 05:16:53;;;;;;;12.18;9.18;;;;;;;18.64;26.96;97625.97;5169643;27;20097;-64
2022/01/21 05:19:19;;;;;;;16.17;11.25;;;;;;;18.64;26.69;97616.09;5169369;27;20147;-64
2022/01/21 05:21:47;;;;;;;16.27;12.30;;;;;;;18.65;26.83;97612.38;5160150;27;20021;-64
2022/01/21 05:24:14;;;;;;;13.95;10.38;;;;;;;18.66;26.95;97610.50;5148525;27;20132;-64
2022/01/21 05:26:42;;;;;;;13.48;10.13;;;;;;;18.66;26.98;97608.66;5148548;28;20030;-64
2022/01/21 05:29:10;;;;;;;12.60;9.80;;;;;;;18.66;27.02;97608.66;5148516;27;20178;-63
2022/01/21 05:31:35;;;;;;;17.52;13.10;;;;;;;18.70;26.48;97614.38;5148371;28;20018;-67
2022/01/21 05:34:01;;;;;;;18.98;12.57;;;;;;;18.72;26.56;97609.63;5148470;27;20047;-66
2022/01/21 05:36:28;;;;;;;13.85;9.68;;;;;;;18.71;26.89;97610.66;5148599;28;20015;-66
2022/01/21 05:38:54;;;;;;;18.33;11.73;;;;;;;18.73;26.57;97613.94;5148436;27;20228;-65
2022/01/21 05:41:23;;;;;;;14.95;11.13;;;;;;;18.75;26.91;97601.13;5148438;28;20011;-66
2022/01/21 05:43:49;;;;;;;14.52;10.98;;;;;;;18.73;26.59;97603.25;5162311;27;20038;-65
2022/01/21 05:48:59;;;;;;;19.58;13.70;;;;;;;18.69;26.57;97600.16;5171751;27;20078;-65
2022/01/21 05:51:24;;;;;;;16.27;11.98;;;;;;;18.70;26.60;97598.31;5173173;27;20159;-65
2022/01/21 05:53:50;;;;;;;15.38;10.10;;;;;;;18.68;26.78;97590.47;5173155;27;20022;-65
2022/01/21 05:56:16;;;;;;;14.82;11.27;;;;;;;18.70;26.81;97591.09;5173157;27;20049;-65
2022/01/21 05:58:41;;;;;;;16.52;11.40;;;;;;;18.68;26.68;97579.75;5173143;27;20072;-65
2022/01/21 06:01:07;;;;;;;16.50;12.40;;;;;;;18.69;26.45;97573.38;5173142;27;20059;-65
2022/01/21 06:03:33;;;;;;;17.77;12.13;;;;;;;18.70;26.63;97582.25;5173022;27;20018;-65
2022/01/21 06:05:59;;;;;;;18.30;12.60;;;;;;;18.72;26.47;97569.44;5172866;27;20023;-66
2022/01/21 06:08:25;;;;;;;17.70;11.55;;;;;;;18.71;26.51;97575.84;5172940;27;20023;-65
2022/01/21 06:10:50;;;;;;;17.02;11.35;;;;;;;18.70;26.71;97558.94;5165388;27;20039;-65
2022/01/21 06:13:18;;;;;;;14.90;11.40;;;;;;;18.69;26.42;97559.16;5152032;27;20022;-65
2022/01/21 06:15:45;;;;;;;13.40;10.38;;;;;;;18.68;26.88;97558.34;5152079;27;20030;-65
2022/01/21 06:18:11;;;;;;;18.60;13.82;;;;;;;18.69;26.75;97554.63;5151995;27;20057;-67
2022/01/21 06:20:37;;;;;;;18.85;11.55;;;;;;;18.68;26.73;97552.19;5151991;27;20026;-65
2022/01/21 06:23:03;;;;;;;18.63;12.48;;;;;;;18.68;26.94;97546.81;5151897;27;20046;-65
2022/01/21 06:25:29;;;;;;;15.15;11.75;;;;;;;18.67;26.83;97551.38;5151810;27;20030;-67
2022/01/21 06:27:54;;;;;;;18.65;11.85;;;;;;;18.66;27.08;97547.06;5151765;27;20072;-64
2022/01/21 06:30:20;;;;;;;17.13;12.30;;;;;;;18.69;26.70;97545.78;5151683;27;20241;-67
2022/01/21 06:32:45;;;;;;;18.17;12.25;;;;;;;18.69;26.73;97543.91;5151607;27;20086;-64
2022/01/21 06:35:13;;;;;;;19.75;12.80;;;;;;;18.70;26.34;97550.09;5151715;27;20220;-65
2022/01/21 06:37:39;;;;;;;16.80;11.52;;;;;;;18.69;26.58;97553.81;5151830;27;20098;-64
2022/01/21 06:40:07;;;;;;;15.23;11.48;;;;;;;18.72;26.54;97550.69;5151632;27;20011;-65
2022/01/21 06:42:33;;;;;;;15.60;12.20;;;;;;;18.69;26.47;97538.53;5133625;27;20083;-65
2022/01/21 06:45:01;;;;;;;19.20;13.55;;;;;;;18.70;26.11;97528.66;5151538;27;20027;-65
2022/01/21 06:47:27;;;;;;;16.20;10.38;;;;;;;18.71;26.56;97544.50;5151375;27;20022;-65
2022/01/21 06:49:54;;;;;;;15.73;11.20;;;;;;;18.71;26.74;97547.19;5151395;27;20019;-65
2022/01/21 06:52:21;;;;;;;16.13;10.15;;;;;;;18.73;26.69;97542.44;5151246;27;20027;-65
2022/01/21 06:54:47;;;;;;;17.20;11.80;;;;;;;18.72;26.86;97534.63;5164762;27;20030;-65
2022/01/21 06:57:14;;;;;;;17.05;12.45;;;;;;;18.74;26.70;97532.53;5172002;27;20022;-64
2022/01/21 06:59:39;;;;;;;14.55;11.80;;;;;;;18.73;26.66;97536.25;5171379;27;20239;-64
2022/01/21 07:02:05;;;;;;;14.48;11.18;;;;;;;18.72;26.63;97542.66;5171842;27;20019;-65
2022/01/21 07:04:31;;;;;;;16.35;11.68;;;;;;;18.72;26.76;97546.16;5171947;27;20022;-64
2022/01/21 07:06:58;;;;;;;16.08;11.30;;;;;;;18.70;26.60;97556.25;5171821;27;20050;-65
2022/01/21 07:09:25;;;;;;;17.38;12.20;;;;;;;18.72;26.46;97553.38;5171728;27;20090;-65
2022/01/21 07:11:50;;;;;;;15.63;12.20;;;;;;;18.72;26.53;97554.19;5171575;27;20035;-65
2022/01/21 07:14:16;;;;;;;19.27;12.90;;;;;;;18.73;26.34;97560.38;5171760;27;20140;-65
2022/01/21 07:16:41;;;;;;;16.05;10.95;;;;;;;18.71;26.39;97562.44;5171762;27;20019;-64
2022/01/21 07:19:07;;;;;;;16.55;10.18;;;;;;;18.72;26.76;97554.19;5171480;27;20025;-64
2022/01/21 07:21:32;;;;;;;14.98;10.52;;;;;;;18.72;26.93;97562.22;5171479;27;20089;-65
2022/01/21 07:23:58;;;;;;;17.67;12.75;;;;;;;18.71;26.54;97552.53;5171517;27;20066;-65
2022/01/21 07:26:23;;;;;;;16.45;12.07;;;;;;;18.72;26.57;97558.72;5171408;27;20078;-65
2022/01/21 07:28:49;;;;;;;18.15;12.75;;;;;;;18.73;26.42;97565.72;5171412;27;20071;-65
2022/01/21 07:31:14;;;;;;;17.58;11.40;;;;;;;18.75;26.52;97547.56;5170401;27;20027;-65
2022/01/21 07:33:40;;;;;;;16.95;11.05;;;;;;;18.76;26.49;97554.53;5170708;27;20026;-65
2022/01/21 07:36:06;;;;;;;17.38;12.27;;;;;;;18.78;26.28;97549.78;5171097;27;20030;-65
2022/01/21 07:38:32;;;;;;;15.50;11.32;;;;;;;18.76;26.23;97550.03;5170918;27;20026;-66
2022/01/21 07:40:57;;;;;;;16.17;11.85;;;;;;;18.80;26.13;97552.25;5170958;27;20023;-65
2022/01/21 07:43:23;;;;;;;16.83;11.95;;;;;;;18.80;26.16;97541.53;5170454;27;20022;-66
2022/01/21 07:45:49;;;;;;;14.13;11.55;;;;;;;18.81;26.16;97535.94;5171210;27;20042;-66
2022/01/21 07:48:14;;;;;;;14.30;10.68;;;;;;;18.80;26.20;97545.03;5171002;27;20185;-65
2022/01/21 07:50:40;;;;;;;13.90;9.88;;;;;;;18.79;26.33;97551.44;5171003;27;20082;-66
2022/01/21 07:53:05;;;;;;;13.27;10.52;;;;;;;18.81;26.22;97551.22;5170602;27;20025;-64
2022/01/21 07:55:31;;;;;;;14.05;11.48;;;;;;;18.80;26.34;97553.06;5170863;27;20029;-66
2022/01/21 07:57:57;;;;;;;14.70;10.52;;;;;;;18.80;26.27;97565.66;5184807;27;20030;-65
2022/01/21 08:00:23;;;;;;;15.70;10.18;;;;;;;18.82;26.07;97561.72;5170801;27;20030;-65
2022/01/21 08:02:49;;;;;;;14.00;10.20;;;;;;;18.85;26.06;97552.41;5170507;27;20060;-65
2022/01/21 08:05:14;;;;;;;15.23;10.65;;;;;;;18.84;26.06;97554.28;5170704;27;20042;-65
2022/01/21 08:07:40;;;;;;;12.82;8.98;;;;;;;18.84;26.28;97556.94;5170872;27;20015;-66
2022/01/21 08:10:06;;;;;;;13.98;11.43;;;;;;;18.85;26.10;97545.19;5186045;27;20018;-66
2022/01/21 08:12:31;;;;;;;14.10;9.57;;;;;;;18.87;26.31;97550.31;5172134;27;20090;-66
2022/01/21 08:14:57;;;;;;;14.93;11.93;;;;;;;18.87;25.98;97540.44;5191505;27;20022;-66
2022/01/21 08:17:23;;;;;;;15.05;9.75;;;;;;;18.89;26.01;97548.22;5191394;27;20073;-65
2022/01/21 08:19:48;;;;;;;15.50;11.48;;;;;;;18.90;25.89;97547.19;5179803;27;20030;-65
2022/01/21 08:22:14;;;;;;;13.35;10.88;;;;;;;18.90;25.68;97558.72;5169933;27;20071;-65
2022/01/21 08:24:40;;;;;;;15.27;10.80;;;;;;;18.96;25.99;97548.19;5170231;27;20208;-66
2022/01/21 08:27:06;;;;;;;13.80;10.73;;;;;;;19.00;26.20;97554.75;5169845;27;20014;-65
2022/01/21 08:29:31;;;;;;;12.68;10.43;;;;;;;19.02;26.01;97544.63;5152459;27;20079;-66
2022/01/21 08:31:57;;;;;;;13.05;10.45;;;;;;;19.02;26.06;97541.94;5170058;27;20018;-66
2022/01/21 08:34:23;;;;;;;15.48;11.35;;;;;;;19.05;25.92;97541.47;5170210;27;20030;-66
2022/01/21 08:36:49;;;;;;;13.40;8.85;;;;;;;19.04;26.06;97538.00;5170121;27;20034;-65
2022/01/21 08:39:15;;;;;;;17.50;11.48;;;;;;;19.05;25.73;97536.09;5169782;27;20010;-65
2022/01/21 08:41:41;;;;;;;14.32;10.05;;;;;;;19.07;25.91;97534.03;5170107;27;20074;-65
2022/01/21 08:44:07;;;;;;;13.35;10.00;;;;;;;19.07;26.18;97523.31;5169859;27;20050;-65
2022/01/21 08:46:33;;;;;;;13.65;10.40;;;;;;;19.05;26.73;97520.88;5169913;27;20019;-65
2022/01/21 08:48:58;;;;;;;19.00;13.90;;;;;;;19.10;25.62;97528.22;5169892;27;20027;-65
2022/01/21 08:51:28;;;;;;;18.60;12.07;;;;;;;19.15;25.33;97523.00;5169848;27;20232;-65
2022/01/21 08:53:54;;;;;;;17.92;11.35;;;;;;;19.19;25.17;97513.44;5169719;27;20022;-65
2022/01/21 08:56:21;;;;;;;15.15;11.80;;;;;;;19.26;25.33;97518.75;5169890;27;20018;-65
2022/01/21 08:58:48;;;;;;;12.23;10.15;;;;;;;19.29;25.65;97512.13;5151098;27;20094;-65
2022/01/21 09:01:15;;;;;;;12.98;10.73;;;;;;;19.34;25.28;97517.59;5169511;27;20033;-65
2022/01/21 09:03:42;;;;;;;13.60;11.27;;;;;;;19.36;25.51;97512.81;5169038;27;20147;-64
2022/01/21 09:06:08;;;;;;;13.27;9.60;;;;;;;19.42;25.46;97514.59;5169684;27;20026;-64
2022/01/21 09:08:34;;;;;;;18.48;11.32;;;;;;;19.44;25.24;97506.31;5151020;27;20093;-66
2022/01/21 09:11:04;;;;;;;15.55;11.93;;;;;;;19.46;24.96;97510.44;5159288;27;20087;-66
2022/01/21 09:13:31;;;;;;;15.38;10.82;;;;;;;19.48;25.34;97510.19;5160213;27;20041;-65
2022/01/21 09:16:00;;;;;;;15.57;10.70;;;;;;;19.49;25.26;97501.09;5169276;27;20093;-66
2022/01/21 09:18:45;;;;;;;17.23;11.40;;;;;;;19.49;25.15;97512.63;5169315;27;20264;-64
2022/01/21 09:21:12;;;;;;;14.13;10.02;;;;;;;19.52;25.33;97517.53;5169299;27;20018;-64
2022/01/21 09:23:37;;;;;;;15.98;12.30;;;;;;;19.52;25.07;97514.06;5168787;27;20011;-64
2022/01/21 09:26:03;;;;;;;10.73;8.40;;;;;;;19.52;25.45;97511.38;5169431;27;20097;-64
2022/01/21 09:28:28;;;;;;;14.70;9.82;;;;;;;19.53;25.33;97499.59;5169360;27;20022;-65
2022/01/21 09:30:54;;;;;;;16.38;11.68;;;;;;;19.52;24.84;97498.78;5169264;27;20046;-66
2022/01/21 09:33:19;;;;;;;14.70;10.80;;;;;;;19.55;24.83;97494.00;5169215;27;20191;-66
2022/01/21 09:35:45;;;;;;;16.00;11.18;;;;;;;19.54;24.86;97493.19;5169236;27;20348;-66
2022/01/21 09:38:11;;;;;;;15.05;10.75;;;;;;;19.55;24.57;97485.94;5168599;27;20023;-65
2022/01/21 09:40:43;;;;;;;18.05;11.43;;;;;;;19.57;24.58;97475.81;5169190;27;20026;-65
2022/01/21 09:43:10;;;;;;;11.20;8.20;;;;;;;19.58;24.94;97475.56;5160557;27;20091;-65
2022/01/21 09:45:36;;;;;;;12.70;9.05;;;;;;;19.58;24.98;97477.44;5148525;28;20015;-66
2022/01/21 09:48:05;;;;;;;12.60;9.27;;;;;;;19.60;25.24;97476.16;5148676;27;20128;-66
2022/01/21 09:50:32;;;;;;;12.93;10.02;;;;;;;19.56;25.04;97466.94;5166830;27;20098;-65
2022/01/21 09:52:58;;;;;;;13.48;8.30;;;;;;;19.59;25.21;97469.16;5169121;27;20027;-65
2022/01/21 09:55:24;;;;;;;15.35;10.90;;;;;;;19.61;24.60;97466.28;5150209;27;20083;-64
2022/01/21 09:57:52;;;;;;;13.30;9.88;;;;;;;19.62;24.55;97466.03;5154904;27;20034;-65
2022/01/21 10:00:23;;;;;;;10.63;8.00;;;;;;;19.61;25.23;97461.69;5186903;27;20132;-66
2022/01/21 10:02:50;;;;;;;11.85;9.02;;;;;;;19.61;25.22;97458.22;5190013;27;20065;-65
2022/01/21 10:05:16;;;;;;;15.10;9.98;;;;;;;19.59;24.78;97458.44;5189883;27;20056;-66
2022/01/21 10:07:47;;;;;;;9.25;8.10;;;;;;;19.61;24.98;97452.84;5169355;27;20136;-66
2022/01/21 10:10:13;;;;;;;12.83;9.17;;;;;;;19.60;24.99;97456.59;5168786;27;20019;-66
2022/01/21 10:12:43;;;;;;;13.30;9.18;;;;;;;19.61;24.96;97458.22;5168752;27;20151;-66
2022/01/21 10:15:10;;;;;;;15.80;10.32;;;;;;;19.61;24.39;97452.84;5169035;27;20042;-66
2022/01/21 10:17:37;;;;;;;12.75;8.90;;;;;;;19.58;24.73;97443.38;5168405;27;20691;-67
2022/01/21 10:20:14;;;;;;;9.15;7.82;;;;;;;19.63;24.95;97451.56;5169177;27;20206;-66
2022/01/21 10:22:57;;;;;;;11.82;8.02;;;;;;;19.64;25.17;97447.84;5168624;27;20036;-66
2022/01/21 10:25:23;;;;;;;11.93;8.75;;;;;;;19.65;25.19;97440.59;5168815;27;20143;-66
2022/01/21 10:27:48;;;;;;;12.73;9.00;;;;;;;19.64;24.73;97436.28;5168406;27;20039;-64
2022/01/21 10:30:24;;;;;;;11.55;9.05;;;;;;;19.65;24.41;97443.28;5168341;27;20033;-65
2022/01/21 10:32:51;;;;;;;11.23;8.73;;;;;;;19.65;24.62;97436.06;5163345;27;20027;-65
2022/01/21 10:35:30;;;;;;;12.02;8.43;;;;;;;19.62;25.09;97443.75;5170179;27;20086;-65
2022/01/21 10:37:57;;;;;;;11.95;8.52;;;;;;;19.58;25.05;97437.22;5172162;27;20232;-65
2022/01/21 10:40:32;;;;;;;11.55;7.93;;;;;;;19.56;25.25;97434.75;5172412;27;20208;-65
2022/01/21 10:43:14;;;;;;;11.48;7.78;;;;;;;19.54;25.22;97423.47;5172041;27;20034;-65
2022/01/21 10:45:49;;;;;;;;;;;;;;;19.49;25.60;97423.31;5172816;27;20228;-65
2022/01/21 10:48:14;;;;;;;11.20;8.07;;;;;;;19.50;25.38;97422.28;5172280;27;19927;-66
2022/01/21 10:50:40;;;;;;;15.13;8.85;;;;;;;19.51;25.32;97416.66;5172209;27;20026;-65
2022/01/21 10:53:24;;;;;;;10.95;7.68;;;;;;;19.50;25.09;97417.72;5171876;27;20029;-65
2022/01/21 10:55:51;;;;;;;12.35;9.02;;;;;;;19.48;25.19;97409.06;5171899;27;20030;-65
2022/01/21 10:58:19;;;;;;;10.07;7.47;;;;;;;19.46;25.37;97403.16;5171803;27;20046;-65
2022/01/21 11:01:03;;;;;;;11.18;8.02;;;;;;;19.49;25.59;97415.28;5172024;27;20018;-66
2022/01/21 11:03:30;;;;;;;10.30;7.82;;;;;;;19.49;25.04;97407.22;5171931;27;20098;-66
2022/01/21 11:06:15;;;;;;;9.20;6.82;;;;;;;19.46;25.36;97411.19;5183382;27;20086;-65
2022/01/21 11:08:40;;;;;;;10.88;7.90;;;;;;;19.48;25.31;97419.00;5192651;27;20021;-66
2022/01/21 11:11:06;;;;;;;10.93;8.50;;;;;;;19.48;25.42;97409.06;5192450;27;20034;-65
2022/01/21 11:13:42;;;;;;;10.57;7.55;;;;;;;19.48;25.24;97413.63;5192329;27;20085;-63
2022/01/21 11:16:20;;;;;;;10.73;8.13;;;;;;;19.47;25.29;97409.31;5192576;27;20018;-67
2022/01/21 11:18:50;;;;;;;9.38;7.20;;;;;;;19.46;25.54;97405.84;5192494;27;20022;-64
2022/01/21 11:21:16;;;;;;;10.25;8.02;;;;;;;19.47;25.61;97404.78;5183407;27;20019;-64
2022/01/21 11:23:42;;;;;;;9.90;7.82;;;;;;;19.46;25.33;97411.19;5150719;27;20137;-64
2022/01/21 11:26:12;;;;;;;10.73;7.55;;;;;;;19.47;25.42;97401.28;5150718;27;20030;-64
2022/01/21 11:28:42;;;;;;;11.75;8.70;;;;;;;19.46;24.98;97397.78;5150519;27;20019;-65
2022/01/21 11:31:08;;;;;;;10.48;8.18;;;;;;;19.46;25.22;97400.47;5150561;27;20027;-65
2022/01/21 11:33:35;;;;;;;14.07;7.93;;;;;;;19.46;25.40;97402.31;5150729;27;20103;-65
2022/01/21 11:36:04;;;;;;;11.25;7.85;;;;;;;19.44;24.99;97399.03;5150442;27;20068;-65
2022/01/21 11:38:33;;;;;;;11.27;9.10;;;;;;;19.44;25.08;97405.25;5150333;27;20037;-66
2022/01/21 11:41:00;;;;;;;12.88;8.50;;;;;;;19.45;25.28;97400.69;5150488;27;20023;-66
2022/01/21 11:43:30;;;;;;;10.65;7.65;;;;;;;19.41;25.24;97402.22;5161057;27;20228;-65
2022/01/21 11:48:50;;;;;;;11.18;8.38;;;;;;;19.40;24.78;97406.75;5170990;27;20090;-65
2022/01/21 11:51:32;;;;;;;10.77;7.45;;;;;;;19.41;25.13;97396.84;5152745;27;20173;-66
2022/01/21 11:54:00;;;;;;;11.05;7.57;;;;;;;19.42;25.31;97401.13;5170894;27;20037;-64
2022/01/21 11:56:29;;;;;;;10.25;7.15;;;;;;;19.41;25.31;97400.34;5170910;27;20022;-65
2022/01/21 11:59:07;;;;;;;8.60;7.13;;;;;;;19.39;25.39;97397.06;5170719;27;20067;-65
2022/01/21 12:01:47;;;;;;;10.10;7.72;;;;;;;19.36;25.25;97402.88;5170816;27;20216;-66
2022/01/21 12:04:43;;;;;;;10.13;6.55;;;;;;;19.35;25.56;97395.88;5170617;27;20029;-66
2022/01/21 12:07:40;;;;;;;10.15;8.30;;;;;;;19.34;25.00;97394.25;5127890;27;20034;-65
2022/01/21 12:10:05;;;;;;;11.07;7.10;;;;;;;19.32;25.48;97393.69;5169994;27;20124;-65
2022/01/21 12:12:47;;;;;;;9.73;7.10;;;;;;;19.31;25.36;97394.72;5149744;27;20011;-65
2022/01/21 12:18:10;;;;;;;10.43;7.70;;;;;;;19.29;25.56;97388.78;5149811;27;20019;-65
2022/01/21 12:20:36;;;;;;;8.65;6.85;;;;;;;19.29;25.60;97388.78;5149631;27;20019;-64
2022/01/21 12:23:16;;;;;;;10.63;7.47;;;;;;;19.29;25.60;97388.78;5149542;27;20023;-65